createdAt,value
2018-12-23T00:02:16.291Z,100.00
2018-12-23T00:04:43.795Z,100.00
2018-12-23T00:07:11.289Z,100.00
2018-12-23T00:09:38.899Z,100.00
2018-12-23T00:12:06.387Z,100.00
2018-12-23T00:14:33.850Z,100.00
2018-12-23T00:17:01.464Z,100.00
2018-12-23T00:19:29.056Z,99.97
2018-12-23T00:21:56.586Z,98.34
2018-12-23T00:24:24.059Z,96.62
2018-12-23T00:26:53.416Z,95.83
2018-12-23T00:29:21.117Z,95.42
2018-12-23T00:31:48.563Z,95.73
2018-12-23T00:34:16.025Z,96.59
2018-12-23T00:36:43.636Z,97.17
2018-12-23T00:39:11.172Z,96.52
2018-12-23T00:41:38.631Z,96.03
2018-12-23T00:44:06.189Z,96.87
2018-12-23T00:46:33.729Z,97.12
2018-12-23T00:49:01.197Z,97.75
2018-12-23T00:51:28.663Z,97.19
2018-12-23T00:53:56.246Z,96.87
2018-12-23T00:56:23.836Z,97.06
2018-12-23T00:58:51.348Z,96.73
2018-12-23T01:01:18.812Z,96.52
2018-12-23T01:03:46.322Z,97.83
2018-12-23T01:06:13.973Z,97.98
2018-12-23T01:08:41.533Z,97.78
2018-12-23T01:11:09.047Z,96.87
2018-12-23T01:13:36.510Z,96.31
2018-12-23T01:16:03.986Z,96.35
2018-12-23T01:18:31.574Z,95.83
2018-12-23T01:20:59.048Z,95.89
2018-12-23T01:23:26.527Z,95.85
2018-12-23T01:25:54.002Z,96.65
2018-12-23T01:28:21.540Z,95.35
2018-12-23T01:30:49.120Z,95.50
2018-12-23T01:33:16.619Z,94.96
2018-12-23T01:35:44.157Z,95.44
2018-12-23T01:38:11.627Z,95.39
2018-12-23T01:40:39.191Z,96.00
2018-12-23T01:43:06.662Z,95.67
2018-12-23T01:45:34.158Z,96.16
2018-12-23T01:48:01.683Z,96.66
2018-12-23T01:50:29.283Z,96.63
2018-12-23T01:52:56.817Z,97.02
2018-12-23T01:55:24.410Z,97.44
2018-12-23T01:57:51.886Z,97.28
2018-12-23T02:00:19.352Z,96.84
2018-12-23T02:02:46.835Z,96.64
2018-12-23T02:05:14.319Z,96.58
2018-12-23T02:07:41.812Z,95.77
2018-12-23T02:10:09.341Z,95.29
2018-12-23T02:12:36.911Z,95.83
2018-12-23T02:15:04.500Z,96.05
2018-12-23T02:17:31.972Z,95.22
2018-12-23T02:19:59.491Z,94.91
2018-12-23T02:22:26.994Z,95.46
2018-12-23T02:24:54.515Z,95.51
2018-12-23T02:27:21.998Z,95.69
2018-12-23T02:29:49.448Z,95.59
2018-12-23T02:32:16.935Z,96.09
2018-12-23T02:34:44.407Z,96.08
2018-12-23T02:37:11.935Z,96.81
2018-12-23T02:39:39.385Z,97.01
2018-12-23T02:42:06.851Z,97.01
2018-12-23T02:44:34.372Z,96.41
2018-12-23T02:47:01.937Z,96.15
2018-12-23T02:49:29.387Z,95.98
2018-12-23T02:51:56.860Z,95.78
2018-12-23T02:54:24.323Z,96.17
2018-12-23T02:56:51.791Z,96.63
2018-12-23T02:59:19.317Z,96.37
2018-12-23T03:01:46.878Z,96.55
2018-12-23T03:04:14.359Z,96.86
2018-12-23T03:06:41.835Z,97.57
2018-12-23T03:09:09.363Z,97.64
2018-12-23T03:11:36.829Z,96.80
2018-12-23T03:14:04.331Z,97.05
2018-12-23T03:16:32.048Z,97.24
2018-12-23T03:18:59.516Z,96.26
2018-12-23T03:21:27.050Z,96.57
2018-12-23T03:23:54.570Z,96.20
2018-12-23T03:26:22.111Z,96.68
2018-12-23T03:28:49.612Z,96.73
2018-12-23T03:31:17.144Z,96.86
2018-12-23T03:33:44.802Z,97.32
2018-12-23T03:36:15.241Z,97.13
2018-12-23T03:38:41.939Z,97.41
2018-12-23T03:41:09.397Z,97.49
2018-12-23T03:43:36.880Z,98.12
2018-12-23T03:46:04.360Z,98.12
2018-12-23T03:48:31.818Z,98.77
2018-12-23T03:50:59.275Z,98.68
2018-12-23T03:53:26.721Z,98.14
2018-12-23T03:55:54.199Z,97.50
2018-12-23T03:58:21.665Z,97.09
2018-12-23T04:00:49.127Z,97.36
2018-12-23T04:03:16.592Z,97.17
2018-12-23T04:05:44.093Z,96.68
2018-12-23T04:08:11.578Z,96.67
2018-12-23T04:10:39.072Z,97.14
2018-12-23T04:13:06.533Z,97.27
2018-12-23T04:15:34.003Z,96.87
2018-12-23T04:18:01.568Z,96.92
2018-12-23T04:20:29.081Z,97.51
2018-12-23T04:22:56.539Z,96.91
2018-12-23T04:25:24.009Z,97.63
2018-12-23T04:27:51.547Z,97.34
2018-12-23T04:30:19.103Z,97.79
2018-12-23T04:32:46.569Z,97.50
2018-12-23T04:35:14.018Z,97.40
2018-12-23T04:37:41.475Z,97.29
2018-12-23T04:40:09.026Z,97.53
2018-12-23T04:42:36.501Z,97.68
2018-12-23T04:45:04.200Z,96.84
2018-12-23T04:47:31.765Z,96.78
2018-12-23T04:49:59.244Z,97.27
2018-12-23T04:52:26.805Z,97.10
2018-12-23T04:54:54.253Z,96.80
2018-12-23T04:57:21.827Z,96.91
2018-12-23T04:59:49.323Z,97.08
2018-12-23T05:02:16.862Z,97.47
2018-12-23T05:04:44.371Z,97.89
2018-12-23T05:07:11.860Z,97.94
2018-12-23T05:09:39.376Z,97.96
2018-12-23T05:12:06.838Z,97.59
2018-12-23T05:14:34.354Z,97.76
2018-12-23T05:17:01.850Z,97.57
2018-12-23T05:19:29.307Z,97.84
2018-12-23T05:21:56.762Z,98.06
2018-12-23T05:24:24.325Z,98.39
2018-12-23T05:26:51.784Z,98.76
2018-12-23T05:29:19.228Z,98.36
2018-12-23T05:31:46.708Z,98.85
2018-12-23T05:34:14.170Z,98.67
2018-12-23T05:36:41.643Z,98.46
2018-12-23T05:39:09.094Z,98.42
2018-12-23T05:41:36.658Z,98.10
2018-12-23T05:44:04.122Z,98.76
2018-12-23T05:46:31.614Z,98.76
2018-12-23T05:48:59.192Z,98.68
2018-12-23T05:51:26.756Z,98.37
2018-12-23T05:53:54.230Z,98.17
2018-12-23T05:56:21.702Z,98.29
2018-12-23T05:58:49.152Z,98.61
2018-12-23T06:01:16.648Z,98.09
2018-12-23T06:03:44.118Z,97.80
2018-12-23T06:06:11.598Z,98.37
2018-12-23T06:08:39.170Z,97.30
2018-12-23T06:11:06.718Z,97.53
2018-12-23T06:13:34.162Z,97.67
2018-12-23T06:16:01.750Z,97.90
2018-12-23T06:18:29.216Z,97.55
2018-12-23T06:20:56.676Z,97.38
2018-12-23T06:23:24.137Z,97.83
2018-12-23T06:25:51.598Z,97.25
2018-12-23T06:28:19.095Z,97.17
2018-12-23T06:30:46.553Z,97.29
2018-12-23T06:33:14.035Z,97.68
2018-12-23T06:35:41.570Z,97.37
2018-12-23T06:38:09.128Z,97.74
2018-12-23T06:40:36.578Z,97.08
2018-12-23T06:43:04.059Z,97.48
2018-12-23T06:45:31.627Z,97.90
2018-12-23T06:47:59.091Z,97.32
2018-12-23T06:50:26.547Z,97.25
2018-12-23T06:52:54.074Z,97.00
2018-12-23T06:55:21.566Z,96.69
2018-12-23T06:57:49.024Z,96.83
2018-12-23T07:00:16.586Z,97.53
2018-12-23T07:02:44.206Z,96.83
2018-12-23T07:05:11.678Z,97.01
2018-12-23T07:07:39.156Z,96.75
2018-12-23T07:10:08.261Z,97.19
2018-12-23T07:12:35.726Z,96.80
2018-12-23T07:15:03.272Z,97.50
2018-12-23T07:17:30.896Z,97.59
2018-12-23T07:19:58.668Z,97.00
2018-12-23T07:22:26.156Z,97.51
2018-12-23T07:24:53.729Z,97.56
2018-12-23T07:27:21.192Z,97.50
2018-12-23T07:29:48.686Z,96.85
2018-12-23T07:32:16.161Z,97.87
2018-12-23T07:34:43.688Z,97.21
2018-12-23T07:37:11.167Z,96.95
2018-12-23T07:39:38.635Z,96.99
2018-12-23T07:42:06.138Z,97.04
2018-12-23T07:44:33.628Z,96.04
2018-12-23T07:47:01.153Z,96.51
2018-12-23T07:49:28.729Z,96.49
2018-12-23T07:51:56.290Z,96.09
2018-12-23T07:54:24.545Z,95.63
2018-12-23T07:56:52.078Z,96.36
2018-12-23T07:59:19.536Z,96.28
2018-12-23T08:01:46.977Z,96.17
2018-12-23T08:04:14.464Z,95.15
2018-12-23T08:06:41.928Z,95.13
2018-12-23T08:09:09.402Z,95.57
2018-12-23T08:11:36.855Z,95.59
2018-12-23T08:14:04.352Z,95.51
2018-12-23T08:16:31.893Z,95.74
2018-12-23T08:18:59.491Z,94.66
2018-12-23T08:21:26.960Z,95.17
2018-12-23T08:23:54.434Z,94.76
2018-12-23T08:26:21.902Z,94.89
2018-12-23T08:28:49.399Z,95.00
2018-12-23T08:31:16.936Z,94.64
2018-12-23T08:33:44.466Z,94.82
2018-12-23T08:36:11.983Z,93.88
2018-12-23T08:38:39.460Z,93.90
2018-12-23T08:41:06.952Z,94.19
2018-12-23T08:43:34.471Z,93.72
2018-12-23T08:46:01.978Z,93.74
2018-12-23T08:48:29.461Z,94.49
2018-12-23T08:50:57.039Z,94.50
2018-12-23T08:53:24.570Z,93.96
2018-12-23T08:55:52.031Z,93.29
2018-12-23T08:58:19.496Z,93.19
2018-12-23T09:00:47.080Z,94.36
2018-12-23T09:03:18.841Z,93.30
2018-12-23T09:05:44.137Z,93.99
2018-12-23T09:08:11.613Z,93.33
2018-12-23T09:10:39.074Z,93.38
2018-12-23T09:13:06.641Z,92.84
2018-12-23T09:15:34.119Z,92.99
2018-12-23T09:18:01.605Z,92.36
2018-12-23T09:20:29.114Z,92.56
2018-12-23T09:22:56.645Z,93.08
2018-12-23T09:25:24.098Z,93.91
2018-12-23T09:27:51.539Z,93.25
2018-12-23T09:30:19.045Z,93.12
2018-12-23T09:32:46.589Z,92.47
2018-12-23T09:35:14.079Z,92.58
2018-12-23T09:37:41.531Z,92.57
2018-12-23T09:40:09.054Z,91.68
2018-12-23T09:42:36.539Z,92.14
2018-12-23T09:45:04.301Z,91.43
2018-12-23T09:47:31.783Z,90.39
2018-12-23T09:49:59.293Z,91.12
2018-12-23T09:52:26.763Z,91.00
2018-12-23T09:54:54.329Z,89.81
2018-12-23T09:57:21.928Z,89.95
2018-12-23T09:59:49.397Z,89.38
2018-12-23T10:02:16.846Z,89.50
2018-12-23T10:04:44.427Z,89.43
2018-12-23T10:07:11.893Z,88.88
2018-12-23T10:09:39.397Z,89.61
2018-12-23T10:12:06.879Z,90.14
2018-12-23T10:14:34.343Z,89.16
2018-12-23T10:17:01.868Z,90.26
2018-12-23T10:19:29.389Z,88.86
2018-12-23T10:21:56.925Z,88.82
2018-12-23T10:24:24.481Z,89.43
2018-12-23T10:26:52.033Z,89.89
2018-12-23T10:29:19.766Z,88.44
2018-12-23T10:31:47.212Z,88.99
2018-12-23T10:34:14.864Z,89.01
2018-12-23T10:36:42.328Z,88.29
2018-12-23T10:39:09.835Z,87.38
2018-12-23T10:41:37.314Z,87.14
2018-12-23T10:44:04.806Z,87.99
2018-12-23T10:46:32.413Z,87.94
2018-12-23T10:48:59.926Z,88.58
2018-12-23T10:51:27.369Z,87.47
2018-12-23T10:53:54.848Z,87.88
2018-12-23T10:56:22.326Z,87.83
2018-12-23T10:58:49.787Z,87.44
2018-12-23T11:01:17.271Z,87.33
2018-12-23T11:03:44.816Z,87.87
2018-12-23T11:06:12.287Z,87.49
2018-12-23T11:08:39.738Z,86.65
2018-12-23T11:11:07.300Z,85.91
2018-12-23T11:13:34.757Z,86.20
2018-12-23T11:16:02.218Z,86.59
2018-12-23T11:18:29.688Z,85.65
2018-12-23T11:20:57.223Z,84.16
2018-12-23T11:23:24.668Z,85.08
2018-12-23T11:25:52.185Z,84.61
2018-12-23T11:28:19.757Z,84.60
2018-12-23T11:30:47.246Z,84.96
2018-12-23T11:33:14.686Z,85.41
2018-12-23T11:35:42.162Z,85.82
2018-12-23T11:38:09.628Z,87.36
2018-12-23T11:40:37.099Z,87.13
2018-12-23T11:43:04.592Z,88.43
2018-12-23T11:45:32.093Z,88.92
2018-12-23T11:47:59.550Z,88.42
2018-12-23T11:50:27.045Z,89.08
2018-12-23T11:52:54.543Z,88.77
2018-12-23T11:55:22.062Z,88.61
2018-12-23T11:57:49.552Z,88.74
2018-12-23T12:00:17.054Z,88.69
2018-12-23T12:02:44.542Z,88.70
2018-12-23T12:05:12.012Z,88.50
2018-12-23T12:07:39.488Z,88.51
2018-12-23T12:10:07.000Z,88.71
2018-12-23T12:12:34.458Z,87.20
2018-12-23T12:15:01.907Z,87.82
2018-12-23T12:17:29.387Z,87.24
2018-12-23T12:19:56.920Z,86.87
2018-12-23T12:22:24.556Z,87.26
2018-12-23T12:24:52.034Z,87.29
2018-12-23T12:27:19.508Z,88.18
2018-12-23T12:29:46.961Z,88.34
2018-12-23T12:32:14.438Z,88.20
2018-12-23T12:34:41.979Z,88.21
2018-12-23T12:37:09.568Z,88.90
2018-12-23T12:39:37.097Z,89.22
2018-12-23T12:42:04.592Z,89.78
2018-12-23T12:44:32.079Z,91.33
2018-12-23T12:46:59.585Z,91.67
2018-12-23T12:49:27.085Z,91.48
2018-12-23T12:51:54.540Z,91.27
2018-12-23T12:54:23.226Z,91.79
2018-12-23T12:56:50.796Z,92.14
2018-12-23T12:59:18.385Z,92.98
2018-12-23T13:01:45.832Z,93.81
2018-12-23T13:04:13.860Z,92.44
2018-12-23T13:06:41.360Z,92.95
2018-12-23T13:09:08.870Z,92.86
2018-12-23T13:11:36.398Z,91.77
2018-12-23T13:14:03.964Z,91.75
2018-12-23T13:16:31.441Z,91.57
2018-12-23T13:18:58.898Z,92.65
2018-12-23T13:21:26.367Z,92.46
2018-12-23T13:23:53.834Z,92.48
2018-12-23T13:26:21.334Z,91.27
2018-12-23T13:28:48.848Z,91.60
2018-12-23T13:31:16.310Z,91.00
2018-12-23T13:33:43.790Z,91.62
2018-12-23T13:36:11.267Z,90.70
2018-12-23T13:38:38.749Z,90.62
2018-12-23T13:41:11.024Z,90.93
2018-12-23T13:43:48.243Z,90.53
2018-12-23T13:46:24.396Z,89.87
2018-12-23T13:49:00.314Z,90.73
2018-12-23T13:51:53.079Z,91.05
2018-12-23T13:58:06.860Z,90.24
2018-12-23T14:00:57.900Z,90.31
2018-12-23T14:03:50.810Z,90.09
2018-12-23T14:06:42.846Z,90.02
2018-12-23T14:09:17.349Z,90.53
2018-12-23T14:11:54.404Z,90.04
2018-12-23T14:14:23.021Z,90.60
2018-12-23T14:16:51.616Z,90.56
2018-12-23T14:19:20.166Z,90.54
2018-12-23T14:21:48.716Z,90.67
2018-12-23T14:24:17.276Z,90.46
2018-12-23T14:26:45.836Z,90.46
2018-12-23T14:29:14.406Z,90.44
2018-12-23T14:31:43.049Z,90.19
2018-12-23T14:34:13.786Z,90.21
2018-12-23T14:36:41.960Z,90.39
2018-12-23T14:39:10.502Z,90.44
2018-12-23T14:41:39.062Z,90.27
2018-12-23T14:44:07.604Z,90.48
2018-12-23T14:46:36.152Z,90.29
2018-12-23T14:49:04.731Z,90.29
2018-12-23T14:51:33.288Z,89.79
2018-12-23T14:54:01.852Z,90.09
2018-12-23T14:56:30.394Z,89.67
2018-12-23T14:58:58.943Z,89.38
2018-12-23T15:01:27.527Z,87.57
2018-12-23T15:03:56.080Z,87.31
2018-12-23T15:06:24.633Z,87.43
2018-12-23T15:08:53.186Z,87.11
2018-12-23T15:11:21.782Z,86.71
2018-12-23T15:13:50.367Z,86.26
2018-12-23T15:16:18.896Z,86.74
2018-12-23T15:18:47.509Z,86.70
2018-12-23T15:21:16.031Z,87.13
2018-12-23T15:23:44.577Z,86.85
2018-12-23T15:26:13.168Z,87.11
2018-12-23T15:28:41.738Z,87.32
2018-12-23T15:31:11.882Z,87.72
2018-12-23T15:33:40.431Z,87.76
2018-12-23T15:36:09.111Z,88.23
2018-12-23T15:38:37.686Z,88.25
2018-12-23T15:41:06.239Z,88.54
2018-12-23T15:43:34.805Z,89.04
2018-12-23T15:46:03.365Z,89.70
2018-12-23T15:48:31.951Z,89.88
2018-12-23T15:51:00.498Z,90.21
2018-12-23T15:53:29.082Z,90.08
2018-12-23T15:55:57.623Z,90.49
2018-12-23T15:58:26.187Z,90.36
2018-12-23T16:00:54.736Z,90.29
2018-12-23T16:03:23.274Z,90.72
2018-12-23T16:05:51.858Z,90.33
2018-12-23T16:08:20.412Z,90.35
2018-12-23T16:10:49.002Z,90.45
2018-12-23T16:13:17.540Z,90.61
2018-12-23T16:15:46.113Z,90.15
2018-12-23T16:18:14.670Z,89.96
2018-12-23T16:20:43.227Z,89.74
2018-12-23T16:23:11.805Z,89.21
2018-12-23T16:25:40.361Z,89.36
2018-12-23T16:28:08.893Z,89.33
2018-12-23T16:30:37.448Z,89.48
2018-12-23T16:33:05.999Z,89.51
2018-12-23T16:35:34.558Z,89.41
2018-12-23T16:38:03.096Z,89.64
2018-12-23T16:40:31.644Z,89.71
2018-12-23T16:43:00.183Z,90.13
2018-12-23T16:45:29.015Z,90.35
2018-12-23T16:47:57.565Z,90.53
2018-12-23T16:50:26.138Z,90.22
2018-12-23T16:52:54.705Z,90.30
2018-12-23T16:55:23.256Z,90.52
2018-12-23T16:57:51.793Z,90.74
2018-12-23T17:00:20.331Z,90.78
2018-12-23T17:02:48.891Z,91.06
2018-12-23T17:05:17.436Z,91.10
2018-12-23T17:07:46.000Z,91.06
2018-12-23T17:10:14.541Z,90.99
2018-12-23T17:12:43.126Z,91.00
2018-12-23T17:15:11.662Z,91.16
2018-12-23T17:17:40.229Z,91.40
2018-12-23T17:20:10.806Z,91.62
2018-12-23T17:22:39.388Z,91.47
2018-12-23T17:25:07.929Z,91.74
2018-12-23T17:27:36.540Z,91.44
2018-12-23T17:30:06.614Z,91.36
2018-12-23T17:32:35.227Z,91.49
2018-12-23T17:35:03.828Z,91.26
2018-12-23T17:37:32.392Z,91.32
2018-12-23T17:40:00.931Z,91.71
2018-12-23T17:42:29.526Z,91.23
2018-12-23T17:44:58.074Z,91.40
2018-12-23T17:47:26.646Z,91.52
2018-12-23T17:49:55.178Z,91.50
2018-12-23T17:52:23.782Z,90.87
2018-12-23T17:54:52.315Z,91.03
2018-12-23T17:57:20.884Z,90.96
2018-12-23T17:59:49.451Z,91.11
2018-12-23T18:02:18.014Z,91.34
2018-12-23T18:04:46.554Z,91.25
2018-12-23T18:07:15.125Z,91.32
2018-12-23T18:09:43.667Z,91.24
2018-12-23T18:12:12.264Z,91.30
2018-12-23T18:14:40.815Z,91.33
2018-12-23T18:17:09.399Z,91.31
2018-12-23T18:19:37.900Z,91.57
2018-12-23T18:22:06.489Z,91.91
2018-12-23T18:24:35.035Z,92.16
2018-12-23T18:27:03.607Z,93.10
2018-12-23T18:29:32.154Z,93.46
2018-12-23T18:32:00.722Z,94.27
2018-12-23T18:34:29.308Z,94.53
2018-12-23T18:36:57.917Z,94.63
2018-12-23T18:39:26.481Z,94.82
2018-12-23T18:41:55.025Z,94.81
2018-12-23T18:44:23.599Z,94.94
2018-12-23T18:46:52.216Z,95.20
2018-12-23T18:49:20.794Z,95.09
2018-12-23T18:51:49.337Z,94.82
2018-12-23T18:54:17.908Z,94.75
2018-12-23T18:56:54.261Z,94.87
2018-12-23T18:59:23.143Z,94.76
2018-12-23T19:01:52.538Z,94.61
2018-12-23T19:04:21.239Z,94.22
2018-12-23T19:06:50.069Z,94.23
2018-12-23T19:09:19.476Z,94.15
2018-12-23T19:12:24.798Z,94.60
2018-12-23T19:14:59.170Z,94.39
2018-12-23T19:17:49.158Z,94.80
2018-12-23T19:20:48.398Z,94.48
2018-12-23T19:23:28.662Z,94.82
2018-12-23T19:26:32.358Z,94.42
2018-12-23T19:29:03.963Z,94.50
2018-12-23T19:31:50.126Z,94.40
2018-12-23T19:34:39.159Z,94.43
2018-12-23T19:37:13.422Z,94.31
2018-12-23T19:39:56.894Z,94.48
2018-12-23T19:42:54.393Z,94.36
2018-12-23T19:45:34.422Z,94.72
2018-12-23T19:48:28.852Z,95.04
2018-12-23T19:51:03.150Z,94.64
2018-12-23T19:53:43.843Z,94.91
2018-12-23T19:56:33.846Z,95.09
2018-12-23T19:59:17.612Z,95.20
2018-12-23T20:02:05.742Z,94.86
2018-12-23T20:04:40.437Z,95.10
2018-12-23T20:07:24.510Z,94.42
2018-12-23T20:09:58.884Z,94.44
2018-12-23T20:12:58.874Z,94.56
2018-12-23T20:15:33.250Z,94.63
2018-12-23T20:18:07.777Z,94.67
2018-12-23T20:20:51.482Z,94.52
2018-12-23T20:23:38.126Z,94.40
2018-12-23T20:26:24.847Z,94.75
2018-12-23T20:29:20.146Z,94.68
2018-12-23T20:32:03.122Z,94.90
2018-12-23T20:34:37.500Z,94.84
2018-12-23T20:37:29.754Z,94.88
2018-12-23T20:40:17.761Z,95.35
2018-12-23T20:42:52.250Z,96.06
2018-12-23T20:45:49.230Z,96.28
2018-12-23T20:48:42.900Z,95.50
2018-12-23T20:51:32.993Z,95.53
2018-12-23T20:54:31.315Z,95.00
2018-12-23T20:57:08.527Z,95.32
2018-12-23T20:59:55.216Z,95.66
2018-12-23T21:02:49.437Z,96.04
2018-12-23T21:05:42.108Z,95.63
2018-12-23T21:08:22.192Z,95.37
2018-12-23T21:11:02.508Z,95.25
2018-12-23T21:13:54.770Z,95.72
2018-12-23T21:16:41.405Z,95.89
2018-12-23T21:19:28.191Z,95.72
2018-12-23T21:22:08.141Z,95.25
2018-12-23T21:24:57.660Z,95.63
2018-12-23T21:27:54.396Z,95.71
2018-12-23T21:30:35.130Z,95.60
2018-12-23T21:33:15.668Z,95.64
2018-12-23T21:36:03.508Z,96.57
2018-12-23T21:38:41.099Z,97.12
2018-12-23T21:41:27.626Z,96.92
2018-12-23T21:44:15.476Z,97.04
2018-12-23T21:47:09.450Z,96.66
2018-12-23T21:49:56.417Z,96.68
2018-12-23T21:52:49.338Z,96.83
2018-12-23T21:55:26.451Z,97.32
2018-12-23T21:58:17.292Z,97.01
2018-12-23T22:01:15.945Z,97.12
2018-12-23T22:03:47.608Z,96.84
2018-12-23T22:06:40.247Z,96.31
2018-12-23T22:09:14.426Z,96.27
2018-12-23T22:12:10.331Z,96.03
2018-12-23T22:14:46.483Z,96.39
2018-12-23T22:17:15.079Z,96.71
2018-12-23T22:19:43.811Z,96.93
2018-12-23T22:22:12.373Z,97.12
2018-12-23T22:24:40.986Z,97.24
2018-12-23T22:27:09.526Z,97.34
2018-12-23T22:29:38.095Z,97.12
2018-12-23T22:32:06.751Z,97.46
2018-12-23T22:34:35.393Z,98.63
2018-12-23T22:37:03.928Z,99.10
2018-12-23T22:39:32.503Z,99.21
2018-12-23T22:42:01.061Z,99.31
2018-12-23T22:44:29.610Z,98.85
2018-12-23T22:46:58.163Z,98.57
2018-12-23T22:49:26.740Z,98.83
2018-12-23T22:51:55.318Z,98.62
2018-12-23T22:54:23.878Z,98.73
2018-12-23T22:56:52.436Z,99.01
2018-12-23T22:59:21.052Z,98.55
2018-12-23T23:01:49.655Z,98.69
2018-12-23T23:04:18.225Z,98.63
2018-12-23T23:06:46.791Z,98.45
2018-12-23T23:09:15.353Z,98.98
2018-12-23T23:11:49.909Z,99.15
2018-12-23T23:14:15.871Z,99.34
2018-12-23T23:16:44.419Z,99.35
2018-12-23T23:19:12.970Z,98.96
2018-12-23T23:21:41.626Z,98.91
2018-12-23T23:24:10.173Z,98.71
2018-12-23T23:26:38.742Z,98.65
2018-12-23T23:29:07.325Z,98.64
2018-12-23T23:31:35.869Z,98.93
2018-12-23T23:34:04.425Z,98.77
2018-12-23T23:36:32.962Z,98.83
2018-12-23T23:39:01.521Z,98.67
2018-12-23T23:41:30.065Z,98.30
2018-12-23T23:43:58.659Z,98.01
2018-12-23T23:46:27.188Z,97.64
2018-12-23T23:48:55.745Z,97.44
2018-12-23T23:51:24.285Z,97.17
2018-12-23T23:53:52.894Z,97.25
2018-12-23T23:56:21.437Z,97.46
2018-12-23T23:58:49.979Z,97.62
